メインページ
METAR-TAF:

METAR-TAF

空港 :

Lytton, ブリティッシュコロンビア州, カナダ

緯度: 50-14N, 経度: 121-35W, 海抜: 229m

現時点の気象観測

当レポートは1時間9分前の18:00(UTC)に作成
の風 16kt、最大31ktの突風を伴う、南/南東から南西の間で変化する
気温 25°C
湿度 36%
気圧 1015 hPa
視程: 14.5km
晴天

METAR: CWLY 181800Z AUTO 19016G31KT 160V220 9SM CLR 25/09 A2996 RMK SLP144 DENSITY ALT 1900FT

時間: 12:09 (19:09 UTC)


TAF: 見つかりません

4,000以上の空港の気象観測と天気予報(METAR報とTAF報)

利用可能な観測所は地図上に黄色い丸と赤い丸で示す。

丸の上にカーソルを重ねると観測所名を参照できる。

次にクリックすると気象観測と天気予報を参照できる。

マップの切り替え:黒色「×」印の緑ボタンをクリックして拡大、「-」印の緑ボタンをクリックして縮小、緑色の三角印をクリックして隣りの地図に切り替え


METAR-TAF: